NWS Home NWS Lubbock West Texas Mesonet South Sector Latest Conditions as of 0325 AM, Thu Feb 23, 2017

Latest   N   C   S   Daily Sum   3hrΔ   24hrΔ   Soil Data 
Site Map   24hr Precip   72hr Precip   Google Plot


Station Time of Last Temp Dew Pt. RH Wind Direction Wind Speed Wind Gust Max Wind Max Temp Min Temp Max RH Min RH Altimeter 1HR Rain Today's Rain Solar Rad Wind Chill
Andrews 2E  03:20 AM 57 27 32% SW810 15 mph 198° @ 1230 AM 61 57 33 25 29.73" 0 0.00 0  
Aspermont 3NE  03:20 AM 64 33 31% SW1317 17 mph 203° @ 0320 AM 64 58 43 31 29.64" 0 0.00 0  
Big Bend NP - Persimmon Gap  03:20 AM 55 29 37% S33 5 mph 229° @ 1255 AM 67 53 42 21 29.78" 0 0.00 0  
Big Lake 1WNW  03:20 AM 59 35 40% S89 10 mph 183° @ 1224 AM 61 57 43 37 29.74" 0 0.00 0  
Brownfield 2S  03:20 AM 54 27 35% SW1113 16 mph 256° @ 0100 AM 58 54 36 31 29.71" 0 0.00 0  
Clyde 2WNW  03:20 AM 65 36 34% S1214 20 mph 206° @ 0148 AM 68 64 40 31 29.68" 0 0.00 0  
Coyanosa 2N  03:20 AM 53 19 25% S89 16 mph 182° @ 1245 AM 64 52 27 20 29.73" 0 0.00 0  
Dell City  03:20 AM 44 26 48% E34 8 mph 304° @ 0104 AM 51 41 55 38 29.80" 0 0.00 0  
Denver City 7WNW  03:20 AM 49 26 40% SW79 14 mph 239° @ 1210 AM 55 49 40 30 29.73" 0 0.00 0  
Fluvanna 3WNW  03:20 AM 57 31 37% SW1012 12 mph 204° @ 0320 AM 58 54 44 37 29.70" 0 0.00 0  
Fort Chadbourne  03:20 AM 52 39 61% NE12 7 mph 297° @ 1227 AM 54 46 86 57 29.70" 0 0.00 0  
Fort Lancaster  03:20 AM 48 38 70% SE11 5 mph 290° @ 1234 AM 63 46 78 36 29.73" 0 0.00 0  
Fort McKavett  03:20 AM 48 40 73% S34 8 mph 179° @ 1241 AM 57 47 75 52 29.74" 0 0.00 0  
Gail 2ESE  03:20 AM 56 32 40% SW1415 15 mph 237° @ 0320 AM 59 54 45 36 29.69" 0 0.00 0  
Graham 5SSW  03:20 AM 57 29 35% W1114 18 mph 249° @ 0315 AM 66 57 37 24 29.70" 0 0.00 0  
Guadalupe Mtns Natl Park  03:20 AM 62 24 23% W1318 40 mph 257° @ 0309 AM 66 62 23 17 29.87" 0 0.00 0  
Haskell 1NW  03:20 AM 52 40 65% SW1011 12 mph 210° @ 0145 AM 57 51 69 57 29.64" 0 0.00 0  
Hobbs NM 5NW  03:20 AM 48 25 40% SW55 14 mph 198° @ 0140 AM 56 47 41 28 29.76" 0 0.00 0  
Jayton 1SSE  03:20 AM 57 33 42% SW79 11 mph 227° @ 0215 AM 61 57 44 35 29.66" 0 0.00 0  
Junction 1SSW  03:20 AM 41 41 97% S34 6 mph 182° @ 0106 AM 49 41 97 84 29.74" 0 0.00 0  
Lake Alan Henry 1NW  03:20 AM 60 30 32% SW1214 16 mph 252° @ 0307 AM 66 59 35 27 29.67" 0 0.00 0  
Lamesa 2SE  03:20 AM 45 35 70% SW78 15 mph 255° @ 0210 AM 55 45 70 42 29.72" 0 0.00 0  
Lomax 1SSE  03:20 AM 48 33 56% S45 14 mph 190° @ 1231 AM 58 48 56 40 29.73" 0 0.00 0  
McCamey 1SSW  03:20 AM 56 36 46% E34 7 mph 52° @ 0152 AM 64 56 46 33 29.73" 0 0.00 0  
Menard 2NW   03:20 AM 43 40 91% W01 7 mph 252° @ 1249 AM 49 43 91 75 29.73" 0 0.00 0  
Mertzon 3NNE  03:20 AM 48 37 65% S67 9 mph 191° @ 0100 AM 52 48 65 59 29.73" 0 0.00 0  
New Home  03:20 AM 47 29 50% W1011 14 mph 224° @ 0203 AM 52 45 52 44 29.72" 0 0.00 0  
O'Donnell 1N  03:20 AM 47 33 58% SW89 15 mph 203° @ 0240 AM 55 47 60 37 29.71" 0 0.00 0  
Plains 3N  03:20 AM 51 27 39% SW911 14 mph 226° @ 0215 AM 55 48 46 34 29.73" 0 0.00 0  
Post 1NE  03:20 AM 58 30 35% SW1013 22 mph 205° @ 1215 AM 67 58 35 23 29.68" 0 0.00 0  
San Angelo 7NW  03:20 AM 49 36 62% SW01 5 mph 233° @ 1250 AM 58 48 71 40 29.71" 0 0.00 0  
Seagraves 1SW  03:20 AM 50 28 42% SW1011 14 mph 258° @ 1255 AM 52 47 47 37 29.72" 0 0.00 0  
Seminole 2NNE  03:20 AM 52 27 37% W910 13 mph 253° @ 0120 AM 56 51 38 31 29.72" 0 0.00 0  
Sierra Blanca 1SSE  03:20 AM 64 23 21% SW910 24 mph 268° @ 0220 AM 69 62 21 17 29.87" 0 0.00 0  
Snyder 3E  03:20 AM 53 36 54% S78 14 mph 196° @ 0120 AM 58 53 55 44 29.70" 0 0.00 0  
Snyder 3SSW  03:20 AM 55 35 46% SW1111 15 mph 209° @ 0109 AM 59 54 52 45 29.70" 0 0.00 0  
St. Lawrence 5SW  03:20 AM 51 34 54% S911 18 mph 181° @ 1245 AM 62 51 54 35 29.72" 0 0.00 0  
Stamford 5ESE  03:20 AM 53 40 62% SW22 11 mph 187° @ 0205 AM 56 52 67 60 29.66" 0 0.00 0  
Sterling City 4WSW  03:20 AM 65 34 31% S1419 27 mph 189° @ 0137 AM 67 64 33 27 29.71" 0 0.00 0  
Sundown 8WSW  03:20 AM 50 28 43% SW89 18 mph 226° @ 0150 AM 59 48 44 31 29.72" 0 0.00 0  
Sweetwater 11SW   03:20 AM 57 35 43% W78 18 mph 184° @ 0211 AM 64 57 43 33 29.72" 0 0.00 0  
Tahoka 3NNE  03:20 AM 49 30 47% SW911 13 mph 202° @ 0319 AM 56 44 58 37 29.71" 0 0.00 0  
Tarzan 2WNW  03:20 AM 52 33 48% S1111 13 mph 193° @ 0259 AM 56 50 55 42 29.73" 0 0.00 0  
Tatum NM 2SW  03:20 AM 44 28 53% W1112 21 mph 223° @ 1230 AM 57 44 54 31 29.74" 0 0.00 0  
Throckmorton 1SW  03:20 AM 59 42 53% SW89 13 mph 228° @ 1239 AM 65 58 62 43 29.64" 0 0.00 0  
Wall 2E  03:20 AM 55 38 54% W1111 16 mph 224° @ 0153 AM 58 53 57 48 29.71" 0 0.00 0  
Weinert 2NNE  03:20 AM 56 41 58% SW1112 15 mph 220° @ 0312 AM 61 51 70 50 29.63" 0 0.00 0  
Welch  03:20 AM 46 31 55% W88 15 mph 242° @ 1257 AM 54 45 58 38 29.72" 0 0.00 0  

West Texas Mesonet Home   Site Map/Menu  NWS Lubbock Soil Data  Daily Summary Page  24hr Precip  72hr Precip  Google Plot